createdAt,value
2022-11-19T00:01:28.473Z,99214.25
2022-11-19T00:03:56.143Z,99222.13
2022-11-19T00:06:28.098Z,99220.38
2022-11-19T00:08:55.692Z,99220.38
2022-11-19T00:12:00.700Z,99222.97
2022-11-19T00:14:27.690Z,99232.63
2022-11-19T00:16:54.676Z,99231.75
2022-11-19T00:19:21.923Z,99235.25
2022-11-19T00:21:50.202Z,99236.13
2022-11-19T00:24:17.248Z,99237.88
2022-11-19T00:26:44.500Z,99237.06
2022-11-19T00:29:17.871Z,99228.28
2022-11-19T00:31:45.226Z,99232.63
2022-11-19T00:34:12.318Z,99230.91
2022-11-19T00:36:39.356Z,99224.78
2022-11-19T00:39:06.531Z,99217.75
2022-11-19T00:41:33.522Z,99215.13
2022-11-19T00:44:00.461Z,99209.84
2022-11-19T00:46:30.754Z,99204.59
2022-11-19T00:48:59.718Z,99199.31
2022-11-19T00:51:30.881Z,99197.56
2022-11-19T00:53:58.330Z,99183.53
2022-11-19T00:56:27.468Z,99176.50
2022-11-19T00:58:55.184Z,99176.50
2022-11-19T01:01:25.668Z,99176.50
2022-11-19T01:03:53.884Z,99180.00
2022-11-19T01:06:24.649Z,99177.38
2022-11-19T01:08:53.496Z,99175.63
2022-11-19T01:11:24.784Z,99174.75
2022-11-19T01:13:52.141Z,99170.38
2022-11-19T01:16:25.323Z,99177.38
2022-11-19T01:18:52.736Z,99180.03
2022-11-19T01:21:22.876Z,99171.25
2022-11-19T01:23:50.485Z,99180.00
2022-11-19T01:26:18.624Z,99167.75
2022-11-19T01:28:46.070Z,99176.50
2022-11-19T01:31:19.104Z,99176.50
2022-11-19T01:33:46.672Z,99169.50
2022-11-19T01:36:21.090Z,99165.13
2022-11-19T01:38:50.878Z,99176.53
2022-11-19T01:41:32.794Z,99176.47
2022-11-19T01:44:28.171Z,99178.25
2022-11-19T01:46:55.155Z,99180.00
2022-11-19T01:49:22.326Z,99192.25
2022-11-19T01:52:01.015Z,99194.00
2022-11-19T01:54:39.448Z,99204.50
2022-11-19T01:57:13.943Z,99223.78
2022-11-19T01:59:43.451Z,99237.81
2022-11-19T02:02:10.839Z,99254.47
2022-11-19T02:04:39.620Z,99266.75
2022-11-19T02:07:07.638Z,99266.75
2022-11-19T02:09:34.640Z,99264.13
2022-11-19T02:12:45.703Z,99262.44
2022-11-19T02:15:18.515Z,99250.22
2022-11-19T02:18:30.711Z,99229.16
2022-11-19T02:21:05.373Z,99219.50
2022-11-19T02:23:52.559Z,99214.25
2022-11-19T02:26:33.327Z,99208.97
2022-11-19T02:29:16.703Z,99200.16
2022-11-19T02:32:04.630Z,99211.56
2022-11-19T02:34:58.870Z,99210.69
2022-11-19T02:37:54.867Z,99222.94
2022-11-19T02:41:00.398Z,99233.47
2022-11-19T02:43:38.981Z,99230.88
2022-11-19T02:46:13.603Z,99226.47
2022-11-19T02:48:46.925Z,99221.22
2022-11-19T02:51:16.867Z,99229.97
2022-11-19T02:53:43.840Z,99235.22
2022-11-19T02:56:52.009Z,99240.47
2022-11-19T02:59:54.353Z,99259.75
2022-11-19T03:02:41.741Z,99266.75
2022-11-19T03:05:15.479Z,99281.66
2022-11-19T03:07:42.675Z,99281.69
2022-11-19T03:10:11.521Z,99279.06
2022-11-19T03:13:28.354Z,99264.16
2022-11-19T03:16:15.603Z,99262.44
2022-11-19T03:18:56.652Z,99246.66
2022-11-19T03:21:45.939Z,99236.13
2022-11-19T03:24:43.520Z,99239.63
2022-11-19T03:27:22.174Z,99223.84
2022-11-19T03:29:54.488Z,99231.75
2022-11-19T03:33:04.336Z,99223.84
2022-11-19T03:35:42.201Z,99224.72
2022-11-19T03:38:15.085Z,99224.72
2022-11-19T03:40:44.469Z,99228.22
2022-11-19T03:43:18.231Z,99227.34
2022-11-19T03:45:47.612Z,99238.75
2022-11-19T03:48:18.292Z,99239.69
2022-11-19T03:50:58.154Z,99231.75
2022-11-19T03:53:26.143Z,99229.97
2022-11-19T03:56:11.947Z,99244.00
2022-11-19T03:58:42.383Z,99248.41
2022-11-19T04:01:10.110Z,99252.78
2022-11-19T04:03:37.681Z,99251.03
2022-11-19T04:06:06.004Z,99264.19
2022-11-19T04:08:33.063Z,99258.06
2022-11-19T04:13:26.115Z,99265.06
2022-11-19T04:15:53.064Z,99273.81
2022-11-19T04:18:20.171Z,99283.47
2022-11-19T04:20:47.132Z,99288.75
2022-11-19T04:23:14.080Z,99300.13
2022-11-19T04:25:47.401Z,99304.53
2022-11-19T04:28:14.355Z,99300.13
2022-11-19T04:30:41.324Z,99307.16
2022-11-19T04:33:08.280Z,99306.28
2022-11-19T04:35:35.278Z,99313.28
2022-11-19T04:38:02.246Z,99315.91
2022-11-19T04:40:29.200Z,99308.03
2022-11-19T04:42:56.167Z,99315.94
2022-11-19T04:45:23.120Z,99317.69
2022-11-19T04:47:50.060Z,99316.81
2022-11-19T04:50:17.129Z,99311.53
2022-11-19T04:52:44.151Z,99317.72
2022-11-19T04:55:11.127Z,99306.34
2022-11-19T04:57:38.073Z,99289.66
2022-11-19T05:00:06.695Z,99286.13
2022-11-19T05:02:33.728Z,99296.66
2022-11-19T05:05:00.721Z,99290.50
2022-11-19T05:07:27.670Z,99287.94
2022-11-19T05:09:54.720Z,99285.31
2022-11-19T05:12:21.648Z,99278.28
2022-11-19T05:14:48.592Z,99275.66
2022-11-19T05:17:15.661Z,99272.16
2022-11-19T05:19:42.604Z,99277.41
2022-11-19T05:22:09.540Z,99275.66
2022-11-19T05:24:36.564Z,99269.50
2022-11-19T05:27:03.962Z,99282.69
2022-11-19T05:29:30.957Z,99278.28
2022-11-19T05:31:57.872Z,99282.69
2022-11-19T05:34:24.877Z,99287.06
2022-11-19T05:36:51.836Z,99289.72
2022-11-19T05:39:22.169Z,99295.84
2022-11-19T05:41:49.964Z,99296.72
2022-11-19T05:44:17.431Z,99293.22
2022-11-19T05:46:44.507Z,99308.13
2022-11-19T05:49:11.917Z,99307.25
2022-11-19T05:51:38.980Z,99319.53
2022-11-19T05:54:06.120Z,99323.06
2022-11-19T05:56:33.327Z,99320.41
2022-11-19T05:59:00.350Z,99326.53
2022-11-19T06:01:30.972Z,99324.72
2022-11-19T06:03:58.040Z,99340.47
2022-11-19T06:06:25.561Z,99362.41
2022-11-19T06:08:52.533Z,99367.66
2022-11-19T06:11:37.785Z,99377.31
2022-11-19T06:14:04.915Z,99398.38
2022-11-19T06:16:31.980Z,99396.56
2022-11-19T06:18:58.951Z,99404.47
2022-11-19T06:21:26.600Z,99413.22
2022-11-19T06:23:53.559Z,99413.19
2022-11-19T06:26:28.358Z,99428.09
2022-11-19T06:28:56.166Z,99421.91
2022-11-19T06:31:23.543Z,99430.66
2022-11-19T06:33:50.770Z,99431.44
2022-11-19T06:36:17.742Z,99446.28
2022-11-19T06:38:44.766Z,99447.13
2022-11-19T06:41:11.839Z,99433.81
2022-11-19T06:43:38.862Z,99433.78
2022-11-19T06:46:05.986Z,99430.19
2022-11-19T06:48:33.002Z,99438.09
2022-11-19T06:51:01.630Z,99434.53
2022-11-19T06:53:29.402Z,99448.59
2022-11-19T06:56:01.870Z,99436.31
2022-11-19T06:58:30.223Z,99432.72
2022-11-19T07:00:57.619Z,99438.91
2022-11-19T07:03:26.348Z,99439.75
2022-11-19T07:06:00.291Z,99447.72
2022-11-19T07:08:27.640Z,99449.41
2022-11-19T07:10:56.598Z,99449.44
2022-11-19T07:13:23.541Z,99452.97
2022-11-19T07:15:50.607Z,99460.00
2022-11-19T07:18:17.543Z,99459.97
2022-11-19T07:20:46.901Z,99449.22
2022-11-19T07:23:13.958Z,99450.88
2022-11-19T07:25:40.959Z,99440.13
2022-11-19T07:28:09.411Z,99445.31
2022-11-19T07:30:36.415Z,99442.66
2022-11-19T07:33:03.491Z,99444.41
2022-11-19T07:35:33.620Z,99447.91
2022-11-19T07:38:00.576Z,99461.03
2022-11-19T07:40:27.686Z,99462.72
2022-11-19T07:42:54.695Z,99457.28
2022-11-19T07:45:22.655Z,99473.22
2022-11-19T07:47:49.989Z,99469.53
2022-11-19T07:50:21.145Z,99469.38
2022-11-19T07:52:48.169Z,99466.56
2022-11-19T07:55:15.972Z,99478.81
2022-11-19T07:57:43.255Z,99483.22
2022-11-19T08:00:11.039Z,99478.69
2022-11-19T08:02:37.978Z,99479.47
2022-11-19T08:05:05.530Z,99463.50
2022-11-19T08:07:32.552Z,99474.91
2022-11-19T08:09:59.610Z,99483.84
2022-11-19T08:12:37.140Z,99487.47
2022-11-19T08:15:05.252Z,99479.53
2022-11-19T08:17:50.733Z,99475.94
2022-11-19T08:20:18.088Z,99485.50
2022-11-19T08:22:45.052Z,99475.75
2022-11-19T08:25:12.155Z,99476.63
2022-11-19T08:27:39.203Z,99485.44
2022-11-19T08:30:07.207Z,99487.28
2022-11-19T08:32:37.552Z,99482.00
2022-11-19T08:35:06.040Z,99489.00
2022-11-19T08:37:32.956Z,99502.16
2022-11-19T08:40:00.005Z,99487.13
2022-11-19T08:42:45.953Z,99488.75
2022-11-19T08:45:16.747Z,99503.69
2022-11-19T08:47:46.970Z,99497.47
2022-11-19T08:50:14.998Z,99510.56
2022-11-19T08:52:42.314Z,99508.69
2022-11-19T08:55:09.956Z,99514.81
2022-11-19T08:57:36.914Z,99509.34
2022-11-19T09:00:06.478Z,99512.94
2022-11-19T09:02:33.965Z,99511.13
2022-11-19T09:05:00.904Z,99521.59
2022-11-19T09:07:29.042Z,99527.88
2022-11-19T09:09:56.271Z,99540.22
2022-11-19T09:12:23.263Z,99533.09
2022-11-19T09:14:50.839Z,99519.50
2022-11-19T09:17:22.073Z,99538.94
2022-11-19T09:19:49.247Z,99536.25
2022-11-19T09:22:17.081Z,99526.56
2022-11-19T09:24:45.751Z,99545.84
2022-11-19T09:27:13.542Z,99551.16
2022-11-19T09:29:40.868Z,99559.09
2022-11-19T09:32:08.130Z,99544.78
2022-11-19T09:34:41.104Z,99563.31
2022-11-19T09:37:09.161Z,99548.06
2022-11-19T09:39:36.573Z,99563.16
2022-11-19T09:42:54.559Z,99565.75
2022-11-19T09:45:56.245Z,99560.19
2022-11-19T09:48:42.241Z,99572.66
2022-11-19T09:51:26.433Z,99566.47
2022-11-19T09:54:18.364Z,99551.13
2022-11-19T09:56:51.838Z,99568.81
2022-11-19T09:59:40.585Z,99568.94
2022-11-19T10:02:23.775Z,99576.81
2022-11-19T10:04:54.723Z,99548.34
2022-11-19T10:07:34.960Z,99565.97
2022-11-19T10:10:38.908Z,99558.81
2022-11-19T10:13:58.180Z,99533.66
2022-11-19T10:16:59.383Z,99548.75
2022-11-19T10:19:54.378Z,99556.63
2022-11-19T10:23:05.507Z,99568.06
2022-11-19T10:25:41.808Z,99554.66
2022-11-19T10:28:21.400Z,99559.84
2022-11-19T10:30:59.240Z,99558.03
2022-11-19T10:34:27.350Z,99558.88
2022-11-19T10:37:03.825Z,99562.28
2022-11-19T10:40:04.741Z,99548.81
2022-11-19T10:42:45.982Z,99572.00
2022-11-19T10:45:25.536Z,99557.78
2022-11-19T10:48:09.334Z,99549.59
2022-11-19T10:50:38.489Z,99560.03
2022-11-19T10:53:36.616Z,99576.91
2022-11-19T10:56:17.855Z,99573.19
2022-11-19T10:59:00.952Z,99587.22
2022-11-19T11:01:37.495Z,99580.00
2022-11-19T11:04:31.368Z,99577.28
2022-11-19T11:07:04.580Z,99588.88
2022-11-19T11:09:42.860Z,99574.72
2022-11-19T11:12:45.333Z,99580.91
2022-11-19T11:15:29.806Z,99582.53
2022-11-19T11:18:06.312Z,99577.19
2022-11-19T11:20:36.297Z,99583.47
2022-11-19T11:23:12.861Z,99589.69
2022-11-19T11:25:41.490Z,99594.81
2022-11-19T11:28:21.356Z,99606.50
2022-11-19T11:31:05.142Z,99607.31
2022-11-19T11:33:41.897Z,99608.94
2022-11-19T11:36:09.072Z,99610.78
2022-11-19T11:38:46.672Z,99632.09
2022-11-19T11:44:21.372Z,99597.19
2022-11-19T11:47:02.141Z,99602.59
2022-11-19T11:49:35.297Z,99602.00
2022-11-19T11:52:49.260Z,99599.88
2022-11-19T11:55:32.838Z,99601.84
2022-11-19T11:58:06.619Z,99597.63
2022-11-19T12:00:36.317Z,99613.59
2022-11-19T12:03:15.891Z,99600.25
2022-11-19T12:06:09.472Z,99609.81
2022-11-19T12:09:01.298Z,99607.25
2022-11-19T12:11:55.613Z,99606.47
2022-11-19T12:15:00.749Z,99617.03
2022-11-19T12:18:09.240Z,99619.31
2022-11-19T12:20:57.401Z,99621.16
2022-11-19T12:24:07.344Z,99616.53
2022-11-19T12:27:10.597Z,99636.97
2022-11-19T12:30:10.499Z,99627.09
2022-11-19T12:32:59.808Z,99627.00
2022-11-19T12:35:45.506Z,99618.16
2022-11-19T12:38:59.924Z,99621.56
2022-11-19T12:42:15.664Z,99626.81
2022-11-19T12:44:55.232Z,99629.53
2022-11-19T12:48:02.821Z,99641.75
2022-11-19T12:51:06.367Z,99652.50
2022-11-19T12:54:19.501Z,99633.66
2022-11-19T12:57:28.480Z,99646.09
2022-11-19T13:00:15.228Z,99653.22
2022-11-19T13:03:12.584Z,99642.38
2022-11-19T13:06:15.333Z,99648.75
2022-11-19T13:08:59.197Z,99634.50
2022-11-19T13:11:43.725Z,99652.91
2022-11-19T13:14:39.932Z,99651.19
2022-11-19T13:17:24.819Z,99651.94
2022-11-19T13:20:04.637Z,99651.09
2022-11-19T13:22:38.131Z,99662.59
2022-11-19T13:25:15.691Z,99646.50
2022-11-19T13:27:45.285Z,99656.22
2022-11-19T13:30:23.676Z,99658.81
2022-11-19T13:33:24.430Z,99674.78
2022-11-19T13:36:14.676Z,99661.28
2022-11-19T13:38:52.743Z,99676.38
2022-11-19T13:41:32.237Z,99672.91
2022-11-19T13:44:18.338Z,99672.81
2022-11-19T13:46:58.107Z,99664.63
2022-11-19T13:49:43.767Z,99671.03
2022-11-19T13:52:28.125Z,99686.78
2022-11-19T13:54:58.771Z,99686.69
2022-11-19T13:57:38.073Z,99684.97
2022-11-19T14:00:21.517Z,99698.09
2022-11-19T14:03:16.093Z,99692.94
2022-11-19T14:05:59.595Z,99701.63
2022-11-19T14:08:52.370Z,99682.13
2022-11-19T14:12:03.167Z,99698.22
2022-11-19T14:15:29.974Z,99689.25
2022-11-19T14:18:34.633Z,99682.09
2022-11-19T14:21:44.872Z,99685.50
2022-11-19T14:24:45.930Z,99698.00
2022-11-19T14:27:25.337Z,99699.00
2022-11-19T14:30:01.198Z,99704.19
2022-11-19T14:32:37.081Z,99710.41
2022-11-19T14:35:04.905Z,99719.06
2022-11-19T14:37:40.567Z,99713.84
2022-11-19T14:40:13.436Z,99713.03
2022-11-19T14:43:20.629Z,99721.00
2022-11-19T14:46:06.425Z,99716.53
2022-11-19T14:48:39.323Z,99716.69
2022-11-19T14:51:33.685Z,99703.13
2022-11-19T14:54:15.657Z,99713.69
2022-11-19T14:56:47.596Z,99714.38
2022-11-19T14:59:21.949Z,99704.50
2022-11-19T15:02:09.591Z,99715.25
2022-11-19T15:04:49.999Z,99729.50
2022-11-19T15:07:34.986Z,99733.66
2022-11-19T15:10:26.971Z,99738.22
2022-11-19T15:13:28.197Z,99735.69
2022-11-19T15:16:21.372Z,99740.75
2022-11-19T15:19:07.122Z,99723.97
2022-11-19T15:22:20.790Z,99727.47
2022-11-19T15:25:05.657Z,99727.53
2022-11-19T15:27:57.768Z,99743.53
2022-11-19T15:30:37.896Z,99722.84
2022-11-19T15:33:08.968Z,99710.50
2022-11-19T15:36:18.824Z,99738.13
2022-11-19T15:38:55.598Z,99737.16
2022-11-19T15:41:25.309Z,99734.44
2022-11-19T15:43:59.887Z,99735.19
2022-11-19T15:46:32.891Z,99716.66
2022-11-19T15:49:24.357Z,99708.63
2022-11-19T15:52:26.775Z,99717.56
2022-11-19T15:55:21.021Z,99725.44
2022-11-19T15:57:52.339Z,99729.56
2022-11-19T16:00:23.682Z,99725.22
2022-11-19T16:02:53.081Z,99725.25
2022-11-19T16:05:30.253Z,99739.50
2022-11-19T16:08:00.049Z,99720.59
2022-11-19T16:10:37.704Z,99724.81
2022-11-19T16:13:41.488Z,99735.38
2022-11-19T16:16:47.454Z,99750.47
2022-11-19T16:19:17.224Z,99746.59
2022-11-19T16:21:52.542Z,99743.94
2022-11-19T16:24:39.744Z,99746.97
2022-11-19T16:27:13.206Z,99763.44
2022-11-19T16:29:42.885Z,99761.63
2022-11-19T16:32:17.053Z,99759.75
2022-11-19T16:34:44.510Z,99758.72
2022-11-19T16:37:19.645Z,99749.97
2022-11-19T16:39:57.515Z,99755.31
2022-11-19T16:42:29.637Z,99767.84
2022-11-19T16:45:10.361Z,99756.13
2022-11-19T16:47:43.264Z,99748.72
2022-11-19T16:50:36.087Z,99753.28
2022-11-19T16:53:06.552Z,99756.81
2022-11-19T16:55:37.253Z,99756.66
2022-11-19T16:58:17.452Z,99771.78
2022-11-19T17:00:51.140Z,99760.19
2022-11-19T17:03:33.617Z,99757.38
2022-11-19T17:06:03.176Z,99773.34
2022-11-19T17:08:39.998Z,99769.53
2022-11-19T17:11:43.759Z,99781.03
2022-11-19T17:14:34.875Z,99772.91
2022-11-19T17:17:24.004Z,99774.59
2022-11-19T17:19:57.105Z,99782.59
2022-11-19T17:22:34.281Z,99785.06
2022-11-19T17:25:13.157Z,99791.88
2022-11-19T17:28:42.469Z,99794.44
2022-11-19T17:31:24.669Z,99806.09
2022-11-19T17:34:06.888Z,99809.59
2022-11-19T17:36:33.889Z,99805.88
2022-11-19T17:39:02.009Z,99814.78
2022-11-19T17:41:48.507Z,99815.53
2022-11-19T17:44:40.748Z,99816.44
2022-11-19T17:47:23.169Z,99816.41
2022-11-19T17:49:54.746Z,99815.53
2022-11-19T17:52:31.199Z,99825.25
2022-11-19T17:55:23.243Z,99829.66
2022-11-19T17:57:50.944Z,99841.28
2022-11-19T18:00:20.048Z,99829.72
2022-11-19T18:02:49.057Z,99824.28
2022-11-19T18:05:23.554Z,99835.78
2022-11-19T18:07:50.816Z,99837.38
2022-11-19T18:10:17.869Z,99840.97
2022-11-19T18:12:44.900Z,99849.88
2022-11-19T18:15:19.061Z,99842.78
2022-11-19T18:17:46.632Z,99828.53
2022-11-19T18:20:13.862Z,99828.66
2022-11-19T18:22:41.343Z,99847.31
2022-11-19T18:25:15.832Z,99842.84
2022-11-19T18:27:43.777Z,99840.09
2022-11-19T18:30:12.712Z,99838.28
2022-11-19T18:32:39.895Z,99846.16
2022-11-19T18:35:17.205Z,99844.09
2022-11-19T18:37:45.566Z,99839.81
2022-11-19T18:40:14.206Z,99858.13
2022-11-19T18:43:03.743Z,99856.38
2022-11-19T18:45:31.910Z,99857.41
2022-11-19T18:47:59.061Z,99863.50
2022-11-19T18:50:34.468Z,99863.53
2022-11-19T18:53:01.659Z,99871.53
2022-11-19T18:55:28.889Z,99858.97
2022-11-19T18:57:56.218Z,99863.34
2022-11-19T19:00:24.075Z,99860.66
2022-11-19T19:05:34.082Z,99871.38
2022-11-19T19:08:01.582Z,99887.09
2022-11-19T19:10:28.553Z,99894.56
2022-11-19T19:12:55.531Z,99886.63
2022-11-19T19:15:22.555Z,99895.38
2022-11-19T19:17:50.621Z,99882.75
2022-11-19T19:20:17.930Z,99884.56
2022-11-19T19:22:45.075Z,99883.50
2022-11-19T19:25:12.044Z,99883.34
2022-11-19T19:27:39.058Z,99892.84
2022-11-19T19:30:07.008Z,99893.69
2022-11-19T19:32:33.979Z,99891.13
2022-11-19T19:35:00.962Z,99897.34
2022-11-19T19:37:28.101Z,99887.63
2022-11-19T19:39:55.210Z,99903.78
2022-11-19T19:42:22.434Z,99899.09
2022-11-19T19:44:50.132Z,99907.78
2022-11-19T19:47:17.443Z,99886.41
2022-11-19T19:49:44.586Z,99895.94
2022-11-19T19:52:11.634Z,99911.44
2022-11-19T19:54:42.341Z,99916.03
2022-11-19T19:57:09.358Z,99910.38
2022-11-19T19:59:36.446Z,99909.72
2022-11-19T20:02:03.783Z,99909.72
2022-11-19T20:04:32.796Z,99907.66
2022-11-19T20:06:59.914Z,99920.16
2022-11-19T20:09:27.603Z,99909.34
2022-11-19T20:11:56.125Z,99920.94
2022-11-19T20:14:23.165Z,99923.38
2022-11-19T20:16:51.877Z,99914.53
2022-11-19T20:19:18.983Z,99903.09
2022-11-19T20:21:47.138Z,99909.44
2022-11-19T20:24:14.222Z,99917.44
2022-11-19T20:26:42.818Z,99910.28
2022-11-19T20:29:14.438Z,99912.94
2022-11-19T20:31:47.264Z,99909.50
2022-11-19T20:34:15.037Z,99910.19
2022-11-19T20:36:42.912Z,99920.69
2022-11-19T20:39:10.990Z,99916.19
2022-11-19T20:41:56.404Z,99915.41
2022-11-19T20:44:23.606Z,99924.91
2022-11-19T20:46:57.322Z,99935.69
2022-11-19T20:49:27.204Z,99940.13
2022-11-19T20:51:56.350Z,99937.59
2022-11-19T20:54:24.230Z,99940.88
2022-11-19T20:56:52.787Z,99940.16
2022-11-19T20:59:20.774Z,99949.53
2022-11-19T21:01:51.916Z,99945.38
2022-11-19T21:04:36.755Z,99942.28
2022-11-19T21:07:05.753Z,99951.25
2022-11-19T21:09:36.603Z,99934.34
2022-11-19T21:12:07.411Z,99936.38
2022-11-19T21:14:35.075Z,99936.22
2022-11-19T21:17:05.910Z,99949.63
2022-11-19T21:19:35.565Z,99950.56
2022-11-19T21:22:03.605Z,99951.66
2022-11-19T21:24:37.926Z,99938.84
2022-11-19T21:27:09.115Z,99945.84
2022-11-19T21:29:38.776Z,99945.09
2022-11-19T21:32:06.877Z,99937.03
2022-11-19T21:34:42.315Z,99953.16
2022-11-19T21:37:14.908Z,99945.00
2022-11-19T21:39:45.458Z,99938.63
2022-11-19T21:42:16.631Z,99961.88
2022-11-19T21:44:44.538Z,99956.31
2022-11-19T21:47:18.388Z,99960.72
2022-11-19T21:49:54.267Z,99955.28
2022-11-19T21:52:22.788Z,99971.19
2022-11-19T21:54:51.629Z,99965.09
2022-11-19T21:57:20.009Z,99962.38
2022-11-19T21:59:50.700Z,99976.56
2022-11-19T22:02:18.982Z,99979.47
2022-11-19T22:04:47.112Z,99976.66
2022-11-19T22:07:14.685Z,99973.75
2022-11-19T22:09:42.484Z,99973.72
2022-11-19T22:12:13.344Z,99965.78
2022-11-19T22:14:41.146Z,99970.53
2022-11-19T22:17:08.763Z,99971.25
2022-11-19T22:19:36.363Z,99976.75
2022-11-19T22:22:04.324Z,99979.47
2022-11-19T22:24:32.514Z,99961.53
2022-11-19T22:27:00.266Z,99961.53
2022-11-19T22:29:28.764Z,99974.75
2022-11-19T22:31:56.164Z,99963.44
2022-11-19T22:34:23.916Z,99965.09
2022-11-19T22:36:51.266Z,99960.59
2022-11-19T22:39:18.765Z,99959.09
2022-11-19T22:41:46.399Z,99965.09
2022-11-19T22:44:13.688Z,99965.88
2022-11-19T22:46:41.289Z,99974.94
2022-11-19T22:49:09.069Z,99985.84
2022-11-19T22:51:39.828Z,99984.81
2022-11-19T22:54:11.838Z,99986.31
2022-11-19T22:56:39.983Z,99977.91
2022-11-19T22:59:07.729Z,99986.56
2022-11-19T23:01:36.912Z,99980.50
2022-11-19T23:04:07.807Z,99981.41
2022-11-19T23:06:39.851Z,99977.00
2022-11-19T23:09:08.841Z,99977.81
2022-11-19T23:11:55.661Z,99965.03
2022-11-19T23:14:23.457Z,99970.66
2022-11-19T23:16:51.609Z,99958.59
2022-11-19T23:19:22.627Z,99956.31
2022-11-19T23:21:51.050Z,99953.53
2022-11-19T23:24:18.954Z,99954.50
2022-11-19T23:26:46.836Z,99956.81
2022-11-19T23:29:14.324Z,99971.06
2022-11-19T23:31:42.475Z,99958.84
2022-11-19T23:34:13.355Z,99960.72
2022-11-19T23:36:41.696Z,99966.63
2022-11-19T23:39:16.480Z,99963.13
2022-11-19T23:41:47.250Z,99960.47
2022-11-19T23:44:15.227Z,99971.00
2022-11-19T23:46:43.272Z,99960.41
2022-11-19T23:49:12.560Z,99974.34
2022-11-19T23:51:42.659Z,99983.38
2022-11-19T23:54:13.707Z,99994.91
2022-11-19T23:56:44.663Z,99975.28
2022-11-19T23:59:12.310Z,99956.88
